sensor_id;sensor_type;location;lat;lon;timestamp;pressure;altitude;pressure_sealevel;temperature;humidity
84232;BME280;74368;48.022;13.830;2024-01-16T00:02:19;95795.34;;;-1.53;70.13
84232;BME280;74368;48.022;13.830;2024-01-16T00:04:44;95794.38;;;-1.52;70.03
84232;BME280;74368;48.022;13.830;2024-01-16T00:07:09;95803.69;;;-1.56;70.39
84232;BME280;74368;48.022;13.830;2024-01-16T00:09:35;95808.16;;;-1.57;70.67
84232;BME280;74368;48.022;13.830;2024-01-16T00:12:04;95797.22;;;-1.54;70.10
84232;BME280;74368;48.022;13.830;2024-01-16T00:14:30;95814.28;;;-1.56;70.35
84232;BME280;74368;48.022;13.830;2024-01-16T00:16:55;95806.78;;;-1.53;69.07
84232;BME280;74368;48.022;13.830;2024-01-16T00:19:20;95811.63;;;-1.56;68.96
84232;BME280;74368;48.022;13.830;2024-01-16T00:21:46;95822.31;;;-1.50;68.76
84232;BME280;74368;48.022;13.830;2024-01-16T00:24:12;95828.88;;;-1.46;68.83
84232;BME280;74368;48.022;13.830;2024-01-16T00:26:37;95821.84;;;-1.53;68.55
84232;BME280;74368;48.022;13.830;2024-01-16T00:29:03;95830.91;;;-1.48;68.21
84232;BME280;74368;48.022;13.830;2024-01-16T00:31:28;95828.31;;;-1.56;69.10
84232;BME280;74368;48.022;13.830;2024-01-16T00:33:53;95831.78;;;-1.55;68.63
84232;BME280;74368;48.022;13.830;2024-01-16T00:36:19;95836.94;;;-1.54;69.00
84232;BME280;74368;48.022;13.830;2024-01-16T00:38:45;95836.81;;;-1.60;68.55
84232;BME280;74368;48.022;13.830;2024-01-16T00:41:14;95833.16;;;-1.59;68.75
84232;BME280;74368;48.022;13.830;2024-01-16T00:43:40;95837.38;;;-1.50;67.35
84232;BME280;74368;48.022;13.830;2024-01-16T00:46:06;95844.69;;;-1.52;67.97
84232;BME280;74368;48.022;13.830;2024-01-16T00:48:31;95854.63;;;-1.54;67.95
84232;BME280;74368;48.022;13.830;2024-01-16T00:50:56;95851.06;;;-1.61;68.23
84232;BME280;74368;48.022;13.830;2024-01-16T00:53:22;95878.47;;;-1.54;67.54
84232;BME280;74368;48.022;13.830;2024-01-16T00:55:47;95870.97;;;-1.51;68.00
84232;BME280;74368;48.022;13.830;2024-01-16T00:58:12;95862.38;;;-1.53;67.23
84232;BME280;74368;48.022;13.830;2024-01-16T01:00:37;95875.19;;;-1.56;68.16
84232;BME280;74368;48.022;13.830;2024-01-16T01:03:04;95878.00;;;-1.58;67.55
84232;BME280;74368;48.022;13.830;2024-01-16T01:05:29;95881.66;;;-1.59;67.56
84232;BME280;74368;48.022;13.830;2024-01-16T01:07:55;95887.41;;;-1.55;67.13
84232;BME280;74368;48.022;13.830;2024-01-16T01:10:21;95884.94;;;-1.57;66.96
84232;BME280;74368;48.022;13.830;2024-01-16T01:12:46;95893.53;;;-1.55;67.57
84232;BME280;74368;48.022;13.830;2024-01-16T01:15:11;95882.28;;;-1.57;67.15
84232;BME280;74368;48.022;13.830;2024-01-16T01:17:38;95885.94;;;-1.58;67.41
84232;BME280;74368;48.022;13.830;2024-01-16T01:20:04;95888.13;;;-1.61;67.40
84232;BME280;74368;48.022;13.830;2024-01-16T01:22:29;95888.97;;;-1.61;67.74
84232;BME280;74368;48.022;13.830;2024-01-16T01:24:55;95898.06;;;-1.63;68.28
84232;BME280;74368;48.022;13.830;2024-01-16T01:27:20;95890.94;;;-1.63;67.74
84232;BME280;74368;48.022;13.830;2024-01-16T01:29:45;95913.59;;;-1.60;68.26
84232;BME280;74368;48.022;13.830;2024-01-16T01:32:11;95911.31;;;-1.63;69.06
84232;BME280;74368;48.022;13.830;2024-01-16T01:34:36;95902.88;;;-1.67;68.34
84232;BME280;74368;48.022;13.830;2024-01-16T01:37:03;95913.25;;;-1.57;68.22
84232;BME280;74368;48.022;13.830;2024-01-16T01:39:28;95917.41;;;-1.63;68.31
84232;BME280;74368;48.022;13.830;2024-01-16T01:41:55;95908.00;;;-1.65;67.81
84232;BME280;74368;48.022;13.830;2024-01-16T01:44:20;95919.41;;;-1.65;68.48
84232;BME280;74368;48.022;13.830;2024-01-16T01:46:46;95938.44;;;-1.61;68.67
84232;BME280;74368;48.022;13.830;2024-01-16T01:49:13;95940.91;;;-1.60;68.53
84232;BME280;74368;48.022;13.830;2024-01-16T01:51:40;95933.59;;;-1.58;68.13
84232;BME280;74368;48.022;13.830;2024-01-16T01:54:05;95945.66;;;-1.55;67.92
84232;BME280;74368;48.022;13.830;2024-01-16T01:56:31;95949.47;;;-1.58;68.30
84232;BME280;74368;48.022;13.830;2024-01-16T01:58:57;95959.91;;;-1.56;68.30
84232;BME280;74368;48.022;13.830;2024-01-16T02:01:25;95956.97;;;-1.61;67.50
84232;BME280;74368;48.022;13.830;2024-01-16T02:03:54;95962.25;;;-1.61;68.23
84232;BME280;74368;48.022;13.830;2024-01-16T02:06:20;95961.09;;;-1.59;68.33
84232;BME280;74368;48.022;13.830;2024-01-16T02:08:45;95958.59;;;-1.60;67.10
84232;BME280;74368;48.022;13.830;2024-01-16T02:11:11;95956.78;;;-1.60;67.99
84232;BME280;74368;48.022;13.830;2024-01-16T02:13:36;95961.44;;;-1.62;67.96
84232;BME280;74368;48.022;13.830;2024-01-16T02:16:02;95968.38;;;-1.61;67.41
84232;BME280;74368;48.022;13.830;2024-01-16T02:18:28;95971.53;;;-1.65;67.64
84232;BME280;74368;48.022;13.830;2024-01-16T02:21:01;95976.19;;;-1.67;68.18
84232;BME280;74368;48.022;13.830;2024-01-16T02:23:30;95980.84;;;-1.69;67.55
84232;BME280;74368;48.022;13.830;2024-01-16T02:25:56;95991.91;;;-1.66;68.56
84232;BME280;74368;48.022;13.830;2024-01-16T02:28:21;95983.97;;;-1.66;68.19
84232;BME280;74368;48.022;13.830;2024-01-16T02:30:47;95980.50;;;-1.66;68.00
84232;BME280;74368;48.022;13.830;2024-01-16T02:33:12;95969.41;;;-1.70;67.75
84232;BME280;74368;48.022;13.830;2024-01-16T02:35:37;95988.78;;;-1.69;67.69
84232;BME280;74368;48.022;13.830;2024-01-16T02:38:04;95990.44;;;-1.68;68.11
84232;BME280;74368;48.022;13.830;2024-01-16T02:40:30;96000.50;;;-1.64;67.83
84232;BME280;74368;48.022;13.830;2024-01-16T02:42:55;96003.16;;;-1.64;66.82
84232;BME280;74368;48.022;13.830;2024-01-16T02:45:21;96006.78;;;-1.65;67.29
84232;BME280;74368;48.022;13.830;2024-01-16T02:47:46;96006.97;;;-1.66;67.46
84232;BME280;74368;48.022;13.830;2024-01-16T02:50:11;96013.41;;;-1.61;67.05
84232;BME280;74368;48.022;13.830;2024-01-16T02:52:37;96009.63;;;-1.66;66.90
84232;BME280;74368;48.022;13.830;2024-01-16T02:55:02;96015.75;;;-1.66;67.81
84232;BME280;74368;48.022;13.830;2024-01-16T02:57:28;96020.38;;;-1.68;67.77
84232;BME280;74368;48.022;13.830;2024-01-16T02:59:53;96025.19;;;-1.71;66.96
84232;BME280;74368;48.022;13.830;2024-01-16T03:02:18;96014.09;;;-1.67;67.06
84232;BME280;74368;48.022;13.830;2024-01-16T03:04:44;96026.66;;;-1.61;66.38
84232;BME280;74368;48.022;13.830;2024-01-16T03:07:09;96021.53;;;-1.70;67.33
84232;BME280;74368;48.022;13.830;2024-01-16T03:09:34;96027.66;;;-1.70;67.73
84232;BME280;74368;48.022;13.830;2024-01-16T03:12:00;96024.38;;;-1.72;67.37
84232;BME280;74368;48.022;13.830;2024-01-16T03:14:25;96036.63;;;-1.71;67.91
84232;BME280;74368;48.022;13.830;2024-01-16T03:16:50;96035.97;;;-1.73;67.25
84232;BME280;74368;48.022;13.830;2024-01-16T03:19:16;96043.53;;;-1.70;66.77
84232;BME280;74368;48.022;13.830;2024-01-16T03:21:41;96041.09;;;-1.71;67.19
84232;BME280;74368;48.022;13.830;2024-01-16T03:24:08;96048.84;;;-1.70;66.58
84232;BME280;74368;48.022;13.830;2024-01-16T03:26:35;96037.47;;;-1.78;67.03
84232;BME280;74368;48.022;13.830;2024-01-16T03:29:02;96047.88;;;-1.77;67.50
84232;BME280;74368;48.022;13.830;2024-01-16T03:31:27;96052.50;;;-1.71;67.19
84232;BME280;74368;48.022;13.830;2024-01-16T03:33:53;96034.66;;;-1.77;66.97
84232;BME280;74368;48.022;13.830;2024-01-16T03:36:18;96046.19;;;-1.70;66.11
84232;BME280;74368;48.022;13.830;2024-01-16T03:38:43;96043.72;;;-1.71;66.44
84232;BME280;74368;48.022;13.830;2024-01-16T03:41:10;96056.13;;;-1.72;66.10
84232;BME280;74368;48.022;13.830;2024-01-16T03:43:36;96049.88;;;-1.79;66.81
84232;BME280;74368;48.022;13.830;2024-01-16T03:46:01;96047.06;;;-1.77;66.86
84232;BME280;74368;48.022;13.830;2024-01-16T03:48:27;96059.44;;;-1.70;66.17
84232;BME280;74368;48.022;13.830;2024-01-16T03:50:52;96051.69;;;-1.79;67.28
84232;BME280;74368;48.022;13.830;2024-01-16T03:53:19;96061.31;;;-1.78;66.77
84232;BME280;74368;48.022;13.830;2024-01-16T03:55:44;96058.13;;;-1.74;65.84
84232;BME280;74368;48.022;13.830;2024-01-16T03:58:10;96052.88;;;-1.82;67.15
84232;BME280;74368;48.022;13.830;2024-01-16T04:00:35;96059.50;;;-1.78;66.74
84232;BME280;74368;48.022;13.830;2024-01-16T04:03:00;96064.78;;;-1.78;65.94
84232;BME280;74368;48.022;13.830;2024-01-16T04:05:26;96055.53;;;-1.82;66.69
84232;BME280;74368;48.022;13.830;2024-01-16T04:07:51;96055.53;;;-1.82;66.23
84232;BME280;74368;48.022;13.830;2024-01-16T04:10:17;96057.84;;;-1.79;66.57
84232;BME280;74368;48.022;13.830;2024-01-16T04:12:42;96049.59;;;-1.84;66.64
84232;BME280;74368;48.022;13.830;2024-01-16T04:15:08;96049.56;;;-1.76;65.18
84232;BME280;74368;48.022;13.830;2024-01-16T04:17:34;96054.19;;;-1.78;66.26
84232;BME280;74368;48.022;13.830;2024-01-16T04:19:59;96068.22;;;-1.77;65.79
84232;BME280;74368;48.022;13.830;2024-01-16T04:22:24;96063.63;;;-1.75;65.82
84232;BME280;74368;48.022;13.830;2024-01-16T04:24:49;96068.38;;;-1.71;65.02
84232;BME280;74368;48.022;13.830;2024-01-16T04:27:15;96069.88;;;-1.68;65.19
84232;BME280;74368;48.022;13.830;2024-01-16T04:29:40;96077.50;;;-1.73;65.78
84232;BME280;74368;48.022;13.830;2024-01-16T04:32:05;96082.28;;;-1.69;64.65
84232;BME280;74368;48.022;13.830;2024-01-16T04:34:31;96062.47;;;-1.81;65.04
84232;BME280;74368;48.022;13.830;2024-01-16T04:36:56;96066.41;;;-1.77;65.76
84232;BME280;74368;48.022;13.830;2024-01-16T04:39:21;96060.78;;;-1.74;65.07
84232;BME280;74368;48.022;13.830;2024-01-16T04:41:49;96064.09;;;-1.72;64.59
84232;BME280;74368;48.022;13.830;2024-01-16T04:44:15;96065.03;;;-1.65;64.40
84232;BME280;74368;48.022;13.830;2024-01-16T04:46:40;96059.81;;;-1.73;64.58
84232;BME280;74368;48.022;13.830;2024-01-16T04:49:06;96054.78;;;-1.68;64.39
84232;BME280;74368;48.022;13.830;2024-01-16T04:51:31;96062.38;;;-1.65;64.16
84232;BME280;74368;48.022;13.830;2024-01-16T04:53:56;96059.94;;;-1.66;64.42
84232;BME280;74368;48.022;13.830;2024-01-16T04:56:22;96059.09;;;-1.67;63.63
84232;BME280;74368;48.022;13.830;2024-01-16T04:58:47;96066.19;;;-1.59;62.74
84232;BME280;74368;48.022;13.830;2024-01-16T05:01:13;96071.47;;;-1.59;63.46
84232;BME280;74368;48.022;13.830;2024-01-16T05:03:38;96075.94;;;-1.60;63.62
84232;BME280;74368;48.022;13.830;2024-01-16T05:06:04;96073.81;;;-1.64;64.41
84232;BME280;74368;48.022;13.830;2024-01-16T05:08:29;96061.22;;;-1.62;63.23
84232;BME280;74368;48.022;13.830;2024-01-16T05:10:56;96063.03;;;-1.63;63.27
84232;BME280;74368;48.022;13.830;2024-01-16T05:13:21;96080.25;;;-1.59;62.94
84232;BME280;74368;48.022;13.830;2024-01-16T05:15:46;96073.47;;;-1.61;63.20
84232;BME280;74368;48.022;13.830;2024-01-16T05:18:12;96075.81;;;-1.66;63.82
84232;BME280;74368;48.022;13.830;2024-01-16T05:20:37;96075.47;;;-1.63;63.33
84232;BME280;74368;48.022;13.830;2024-01-16T05:23:02;96089.81;;;-1.58;63.41
84232;BME280;74368;48.022;13.830;2024-01-16T05:25:28;96080.72;;;-1.55;61.89
84232;BME280;74368;48.022;13.830;2024-01-16T05:27:54;96085.47;;;-1.51;62.72
84232;BME280;74368;48.022;13.830;2024-01-16T05:30:19;96065.66;;;-1.55;61.56
84232;BME280;74368;48.022;13.830;2024-01-16T05:32:44;96068.63;;;-1.58;62.83
84232;BME280;74368;48.022;13.830;2024-01-16T05:35:10;96075.59;;;-1.57;62.09
84232;BME280;74368;48.022;13.830;2024-01-16T05:37:35;96078.88;;;-1.55;62.11
84232;BME280;74368;48.022;13.830;2024-01-16T05:40:01;96071.66;;;-1.61;62.24
84232;BME280;74368;48.022;13.830;2024-01-16T05:42:28;96084.31;;;-1.48;60.53
84232;BME280;74368;48.022;13.830;2024-01-16T05:44:53;96077.84;;;-1.46;60.70
84232;BME280;74368;48.022;13.830;2024-01-16T05:47:18;96077.19;;;-1.48;60.99
84232;BME280;74368;48.022;13.830;2024-01-16T05:49:44;96080.19;;;-1.51;61.07
84232;BME280;74368;48.022;13.830;2024-01-16T05:52:09;96074.25;;;-1.53;61.24
84232;BME280;74368;48.022;13.830;2024-01-16T05:54:35;96078.22;;;-1.49;61.73
84232;BME280;74368;48.022;13.830;2024-01-16T05:57:00;96086.31;;;-1.50;60.62
84232;BME280;74368;48.022;13.830;2024-01-16T05:59:26;96084.31;;;-1.48;60.85
84232;BME280;74368;48.022;13.830;2024-01-16T06:01:51;96087.16;;;-1.50;61.32
84232;BME280;74368;48.022;13.830;2024-01-16T06:04:16;96087.16;;;-1.50;61.12
84232;BME280;74368;48.022;13.830;2024-01-16T06:06:41;96096.59;;;-1.55;61.99
84232;BME280;74368;48.022;13.830;2024-01-16T06:09:11;96084.22;;;-1.63;61.64
84232;BME280;74368;48.022;13.830;2024-01-16T06:11:39;96097.13;;;-1.60;62.65
84232;BME280;74368;48.022;13.830;2024-01-16T06:14:06;96089.69;;;-1.64;62.92
84232;BME280;74368;48.022;13.830;2024-01-16T06:16:31;96093.81;;;-1.62;62.40
84232;BME280;74368;48.022;13.830;2024-01-16T06:18:57;96089.19;;;-1.60;62.12
84232;BME280;74368;48.022;13.830;2024-01-16T06:21:22;96105.91;;;-1.59;62.44
84232;BME280;74368;48.022;13.830;2024-01-16T06:23:48;96101.47;;;-1.67;62.86
84232;BME280;74368;48.022;13.830;2024-01-16T06:26:13;96105.78;;;-1.66;63.48
84232;BME280;74368;48.022;13.830;2024-01-16T06:28:38;96108.09;;;-1.71;63.45
84232;BME280;74368;48.022;13.830;2024-01-16T06:31:07;96108.91;;;-1.70;62.87
84232;BME280;74368;48.022;13.830;2024-01-16T06:33:32;96109.91;;;-1.71;62.87
84232;BME280;74368;48.022;13.830;2024-01-16T06:35:57;96101.97;;;-1.71;62.62
84232;BME280;74368;48.022;13.830;2024-01-16T06:38:23;96116.69;;;-1.69;63.05
84232;BME280;74368;48.022;13.830;2024-01-16T06:40:48;96109.41;;;-1.75;63.21
84232;BME280;74368;48.022;13.830;2024-01-16T06:43:15;96112.38;;;-1.70;61.81
84232;BME280;74368;48.022;13.830;2024-01-16T06:45:42;96116.03;;;-1.71;62.23
84232;BME280;74368;48.022;13.830;2024-01-16T06:48:07;96105.16;;;-1.76;61.95
84232;BME280;74368;48.022;13.830;2024-01-16T06:50:32;96120.97;;;-1.68;62.43
84232;BME280;74368;48.022;13.830;2024-01-16T06:52:58;96120.63;;;-1.65;62.10
84232;BME280;74368;48.022;13.830;2024-01-16T06:55:23;96115.03;;;-1.70;61.63
84232;BME280;74368;48.022;13.830;2024-01-16T06:57:48;96120.19;;;-1.68;62.53
84232;BME280;74368;48.022;13.830;2024-01-16T07:00:14;96119.22;;;-1.75;62.58
84232;BME280;74368;48.022;13.830;2024-01-16T07:02:40;96113.09;;;-1.84;63.57
84232;BME280;74368;48.022;13.830;2024-01-16T07:05:08;96127.63;;;-1.72;63.13
84232;BME280;74368;48.022;13.830;2024-01-16T07:07:34;96133.56;;;-1.70;62.46
84232;BME280;74368;48.022;13.830;2024-01-16T07:09:59;96129.94;;;-1.69;62.08
84232;BME280;74368;48.022;13.830;2024-01-16T07:12:24;96137.34;;;-1.64;62.87
84232;BME280;74368;48.022;13.830;2024-01-16T07:14:50;96135.22;;;-1.69;62.57
84232;BME280;74368;48.022;13.830;2024-01-16T07:17:15;96128.63;;;-1.73;62.11
84232;BME280;74368;48.022;13.830;2024-01-16T07:19:41;96124.03;;;-1.87;62.85
84232;BME280;74368;48.022;13.830;2024-01-16T07:22:06;96144.34;;;-1.79;62.76
84232;BME280;74368;48.022;13.830;2024-01-16T07:24:31;96138.53;;;-1.75;62.20
84232;BME280;74368;48.022;13.830;2024-01-16T07:26:57;96132.25;;;-1.74;62.78
84232;BME280;74368;48.022;13.830;2024-01-16T07:29:22;96141.19;;;-1.75;62.80
84232;BME280;74368;48.022;13.830;2024-01-16T07:31:47;96150.28;;;-1.69;61.84
84232;BME280;74368;48.022;13.830;2024-01-16T07:34:13;96147.31;;;-1.74;62.67
84232;BME280;74368;48.022;13.830;2024-01-16T07:36:42;96141.69;;;-1.71;62.32
84232;BME280;74368;48.022;13.830;2024-01-16T07:39:07;96147.44;;;-1.68;62.21
84232;BME280;74368;48.022;13.830;2024-01-16T07:41:33;96146.78;;;-1.62;61.91
84232;BME280;74368;48.022;13.830;2024-01-16T07:43:59;96144.78;;;-1.60;61.53
84232;BME280;74368;48.022;13.830;2024-01-16T07:46:24;96147.06;;;-1.49;61.05
84232;BME280;74368;48.022;13.830;2024-01-16T07:48:50;96136.72;;;-1.36;60.72
84232;BME280;74368;48.022;13.830;2024-01-16T07:51:15;96138.69;;;-1.29;60.37
84232;BME280;74368;48.022;13.830;2024-01-16T07:53:41;96134.50;;;-1.24;60.51
84232;BME280;74368;48.022;13.830;2024-01-16T07:56:06;96129.34;;;-1.17;60.32
84232;BME280;74368;48.022;13.830;2024-01-16T07:58:31;96150.63;;;-1.03;60.08
84232;BME280;74368;48.022;13.830;2024-01-16T08:00:57;96139.16;;;-0.95;59.99
84232;BME280;74368;48.022;13.830;2024-01-16T08:03:22;96143.41;;;-0.86;59.57
84232;BME280;74368;48.022;13.830;2024-01-16T08:05:47;96137.31;;;-0.95;59.78
84232;BME280;74368;48.022;13.830;2024-01-16T08:08:12;96140.34;;;-0.98;59.44
84232;BME280;74368;48.022;13.830;2024-01-16T08:10:41;96142.81;;;-0.96;60.02
84232;BME280;74368;48.022;13.830;2024-01-16T08:13:06;96144.69;;;-1.05;59.71
84232;BME280;74368;48.022;13.830;2024-01-16T08:15:31;96139.66;;;-1.00;59.90
84232;BME280;74368;48.022;13.830;2024-01-16T08:17:57;96131.56;;;-0.98;59.31
84232;BME280;74368;48.022;13.830;2024-01-16T08:20:22;96139.31;;;-0.97;59.56
84232;BME280;74368;48.022;13.830;2024-01-16T08:22:49;96134.66;;;-0.95;59.58
84232;BME280;74368;48.022;13.830;2024-01-16T08:25:15;96140.88;;;-1.02;59.58
84232;BME280;74368;48.022;13.830;2024-01-16T08:27:40;96131.59;;;-1.06;59.79
84232;BME280;74368;48.022;13.830;2024-01-16T08:30:06;96138.78;;;-0.92;59.24
84232;BME280;74368;48.022;13.830;2024-01-16T08:32:32;96143.41;;;-0.86;58.73
84232;BME280;74368;48.022;13.830;2024-01-16T08:34:57;96143.09;;;-0.91;59.11
84232;BME280;74368;48.022;13.830;2024-01-16T08:37:23;96152.56;;;-0.66;58.68
84232;BME280;74368;48.022;13.830;2024-01-16T08:39:48;96150.13;;;-0.76;58.56
84232;BME280;74368;48.022;13.830;2024-01-16T08:42:13;96147.16;;;-0.58;58.59
84232;BME280;74368;48.022;13.830;2024-01-16T08:44:38;96154.69;;;-0.10;67.96
84232;BME280;74368;48.022;13.830;2024-01-16T08:47:07;96147.81;;;0.19;60.07
84232;BME280;74368;48.022;13.830;2024-01-16T08:49:32;96151.44;;;0.03;56.42
84232;BME280;74368;48.022;13.830;2024-01-16T08:51:58;96146.50;;;0.00;57.42
84232;BME280;74368;48.022;13.830;2024-01-16T08:54:24;96153.00;;;-0.03;56.53
84232;BME280;74368;48.022;13.830;2024-01-16T08:56:51;96150.50;;;-0.04;56.87
84232;BME280;74368;48.022;13.830;2024-01-16T08:59:16;96155.28;;;0.00;56.28
84232;BME280;74368;48.022;13.830;2024-01-16T09:01:41;96139.81;;;-0.11;56.54
84232;BME280;74368;48.022;13.830;2024-01-16T09:04:07;96143.66;;;0.02;56.73
84232;BME280;74368;48.022;13.830;2024-01-16T09:06:32;96146.03;;;-0.04;56.41
84232;BME280;74368;48.022;13.830;2024-01-16T09:08:57;96137.88;;;-0.02;56.47
84232;BME280;74368;48.022;13.830;2024-01-16T09:11:23;96142.00;;;0.00;56.59
84232;BME280;74368;48.022;13.830;2024-01-16T09:13:48;96136.63;;;0.09;56.40
84232;BME280;74368;48.022;13.830;2024-01-16T09:16:13;96140.09;;;0.09;56.20
84232;BME280;74368;48.022;13.830;2024-01-16T09:18:40;96140.75;;;0.11;56.07
84232;BME280;74368;48.022;13.830;2024-01-16T09:21:06;96153.19;;;0.25;56.15
84232;BME280;74368;48.022;13.830;2024-01-16T09:23:31;96147.53;;;0.28;55.99
84232;BME280;74368;48.022;13.830;2024-01-16T09:25:57;96149.53;;;0.26;56.03
84232;BME280;74368;48.022;13.830;2024-01-16T09:28:22;96138.28;;;0.24;55.61
84232;BME280;74368;48.022;13.830;2024-01-16T09:30:47;96146.97;;;0.18;56.20
84232;BME280;74368;48.022;13.830;2024-01-16T09:33:13;96143.59;;;0.24;55.84
84232;BME280;74368;48.022;13.830;2024-01-16T09:35:38;96139.84;;;0.19;55.54
84232;BME280;74368;48.022;13.830;2024-01-16T09:38:04;96136.97;;;0.35;55.73
84232;BME280;74368;48.022;13.830;2024-01-16T09:40:32;96131.94;;;0.40;55.14
84232;BME280;74368;48.022;13.830;2024-01-16T09:42:57;96128.28;;;0.41;54.87
84232;BME280;74368;48.022;13.830;2024-01-16T09:45:24;96125.81;;;0.39;54.38
84232;BME280;74368;48.022;13.830;2024-01-16T09:47:51;96121.59;;;0.30;54.74
84232;BME280;74368;48.022;13.830;2024-01-16T09:50:17;96126.09;;;0.15;53.99
84232;BME280;74368;48.022;13.830;2024-01-16T09:52:45;96130.03;;;0.19;54.19
84232;BME280;74368;48.022;13.830;2024-01-16T09:55:12;96129.84;;;0.21;54.27
84232;BME280;74368;48.022;13.830;2024-01-16T09:57:39;96116.09;;;0.32;53.82
84232;BME280;74368;48.022;13.830;2024-01-16T10:00:09;96114.75;;;0.36;53.42
84232;BME280;74368;48.022;13.830;2024-01-16T10:02:38;96102.38;;;0.28;53.35
84232;BME280;74368;48.022;13.830;2024-01-16T10:05:04;96116.75;;;0.48;53.28
84232;BME280;74368;48.022;13.830;2024-01-16T10:07:30;96106.63;;;0.58;52.32
84232;BME280;74368;48.022;13.830;2024-01-16T10:09:57;96099.88;;;0.56;52.22
84232;BME280;74368;48.022;13.830;2024-01-16T10:12:23;96105.34;;;0.69;51.35
84232;BME280;74368;48.022;13.830;2024-01-16T10:14:49;96095.06;;;0.66;51.11
84232;BME280;74368;48.022;13.830;2024-01-16T10:17:17;96084.28;;;0.68;51.77
84232;BME280;74368;48.022;13.830;2024-01-16T10:19:53;96089.09;;;0.79;51.41
84232;BME280;74368;48.022;13.830;2024-01-16T10:22:21;96093.53;;;0.93;51.04
84232;BME280;74368;48.022;13.830;2024-01-16T10:24:48;96089.56;;;0.82;50.75
84232;BME280;74368;48.022;13.830;2024-01-16T10:27:15;96096.88;;;0.95;51.07
84232;BME280;74368;48.022;13.830;2024-01-16T10:29:55;96092.47;;;0.87;50.70
84232;BME280;74368;48.022;13.830;2024-01-16T10:32:37;96089.25;;;0.92;50.66
84232;BME280;74368;48.022;13.830;2024-01-16T10:35:07;96088.63;;;1.11;51.11
84232;BME280;74368;48.022;13.830;2024-01-16T10:37:47;96082.06;;;1.07;50.78
84232;BME280;74368;48.022;13.830;2024-01-16T10:40:20;96079.34;;;1.21;50.81
84232;BME280;74368;48.022;13.830;2024-01-16T10:42:56;96074.94;;;1.35;50.72
84232;BME280;74368;48.022;13.830;2024-01-16T10:45:22;96069.00;;;1.33;50.18
84232;BME280;74368;48.022;13.830;2024-01-16T10:47:49;96074.81;;;1.22;48.96
84232;BME280;74368;48.022;13.830;2024-01-16T10:50:14;96066.59;;;1.17;50.36
84232;BME280;74368;48.022;13.830;2024-01-16T10:52:46;96073.19;;;1.21;49.34
84232;BME280;74368;48.022;13.830;2024-01-16T10:55:21;96069.00;;;1.12;49.83
84232;BME280;74368;48.022;13.830;2024-01-16T10:57:48;96069.44;;;1.15;50.37
84232;BME280;74368;48.022;13.830;2024-01-16T11:00:13;96061.72;;;1.20;49.68
84232;BME280;74368;48.022;13.830;2024-01-16T11:02:45;96066.97;;;1.14;48.63
84232;BME280;74368;48.022;13.830;2024-01-16T11:05:14;96059.63;;;1.16;49.20
84232;BME280;74368;48.022;13.830;2024-01-16T11:07:42;96061.09;;;1.18;49.85
84232;BME280;74368;48.022;13.830;2024-01-16T11:10:09;96060.31;;;1.03;48.58
84232;BME280;74368;48.022;13.830;2024-01-16T11:12:35;96053.84;;;1.12;48.35
84232;BME280;74368;48.022;13.830;2024-01-16T11:15:03;96050.63;;;1.38;50.32
84232;BME280;74368;48.022;13.830;2024-01-16T11:17:33;96046.22;;;1.52;48.69
84232;BME280;74368;48.022;13.830;2024-01-16T11:20:00;96038.19;;;1.45;48.70
84232;BME280;74368;48.022;13.830;2024-01-16T11:22:27;96045.69;;;1.35;49.44
84232;BME280;74368;48.022;13.830;2024-01-16T11:25:15;96046.81;;;1.47;48.69
84232;BME280;74368;48.022;13.830;2024-01-16T11:27:42;96045.09;;;1.40;51.00
84232;BME280;74368;48.022;13.830;2024-01-16T11:30:11;96035.00;;;1.28;50.30
84232;BME280;74368;48.022;13.830;2024-01-16T11:32:39;96037.00;;;1.48;48.72
84232;BME280;74368;48.022;13.830;2024-01-16T11:35:09;96022.28;;;1.52;49.23
84232;BME280;74368;48.022;13.830;2024-01-16T11:37:39;96017.81;;;1.59;48.81
84232;BME280;74368;48.022;13.830;2024-01-16T11:42:53;96001.78;;;1.46;48.97
84232;BME280;74368;48.022;13.830;2024-01-16T11:48:09;96008.88;;;1.66;49.67
84232;BME280;74368;48.022;13.830;2024-01-16T11:50:35;96015.03;;;1.67;49.40
84232;BME280;74368;48.022;13.830;2024-01-16T11:53:00;96010.06;;;1.64;48.11
84232;BME280;74368;48.022;13.830;2024-01-16T11:58:35;96001.47;;;1.62;47.56
84232;BME280;74368;48.022;13.830;2024-01-16T12:01:07;95994.09;;;1.64;46.58
84232;BME280;74368;48.022;13.830;2024-01-16T12:03:33;95983.84;;;1.61;49.87
84232;BME280;74368;48.022;13.830;2024-01-16T12:05:59;95990.38;;;1.58;49.78
84232;BME280;74368;48.022;13.830;2024-01-16T12:08:25;95978.88;;;1.51;48.17
84232;BME280;74368;48.022;13.830;2024-01-16T12:10:50;95974.59;;;1.57;49.87
84232;BME280;74368;48.022;13.830;2024-01-16T12:13:16;95971.75;;;1.58;49.80
84232;BME280;74368;48.022;13.830;2024-01-16T12:15:42;95968.47;;;1.56;50.23
84232;BME280;74368;48.022;13.830;2024-01-16T12:18:08;95954.34;;;1.56;47.62
84232;BME280;74368;48.022;13.830;2024-01-16T12:20:37;95957.94;;;1.76;49.21
84232;BME280;74368;48.022;13.830;2024-01-16T12:23:04;95954.50;;;1.82;49.10
84232;BME280;74368;48.022;13.830;2024-01-16T12:25:32;95953.06;;;1.86;50.64
84232;BME280;74368;48.022;13.830;2024-01-16T12:28:01;95952.47;;;1.84;48.73
84232;BME280;74368;48.022;13.830;2024-01-16T12:30:34;95941.88;;;1.97;47.76
84232;BME280;74368;48.022;13.830;2024-01-16T12:33:10;95939.25;;;2.10;49.03
84232;BME280;74368;48.022;13.830;2024-01-16T12:35:40;95936.81;;;2.15;49.38
84232;BME280;74368;48.022;13.830;2024-01-16T12:38:10;95937.41;;;2.04;49.30
84232;BME280;74368;48.022;13.830;2024-01-16T12:40:39;95931.56;;;1.87;49.15
84232;BME280;74368;48.022;13.830;2024-01-16T12:43:06;95930.25;;;2.11;48.73
84232;BME280;74368;48.022;13.830;2024-01-16T12:45:31;95922.44;;;2.10;47.65
84232;BME280;74368;48.022;13.830;2024-01-16T12:47:59;95921.59;;;1.96;47.80
84232;BME280;74368;48.022;13.830;2024-01-16T12:50:26;95923.16;;;1.84;48.21
84232;BME280;74368;48.022;13.830;2024-01-16T12:55:30;95909.66;;;1.51;50.90
84232;BME280;74368;48.022;13.830;2024-01-16T12:58:21;95913.13;;;1.45;52.06
84232;BME280;74368;48.022;13.830;2024-01-16T13:00:50;95911.38;;;1.99;48.94